sensor_id;sensor_type;location;lat;lon;timestamp;P1;durP1;ratioP1;P2;durP2;ratioP2
25549;SDS011;13444;50.562;7.262;2024-01-15T00:01:17;9.60;;;5.73;;
25549;SDS011;13444;50.562;7.262;2024-01-15T00:03:42;11.00;;;5.93;;
25549;SDS011;13444;50.562;7.262;2024-01-15T00:06:08;15.73;;;5.73;;
25549;SDS011;13444;50.562;7.262;2024-01-15T00:08:33;12.57;;;6.00;;
25549;SDS011;13444;50.562;7.262;2024-01-15T00:10:59;11.00;;;5.77;;
25549;SDS011;13444;50.562;7.262;2024-01-15T00:13:24;12.23;;;5.87;;
25549;SDS011;13444;50.562;7.262;2024-01-15T00:15:50;11.50;;;6.00;;
25549;SDS011;13444;50.562;7.262;2024-01-15T00:18:15;16.27;;;6.63;;
25549;SDS011;13444;50.562;7.262;2024-01-15T00:20:41;10.20;;;5.63;;
25549;SDS011;13444;50.562;7.262;2024-01-15T00:23:07;11.47;;;5.93;;
25549;SDS011;13444;50.562;7.262;2024-01-15T00:25:32;10.47;;;5.57;;
25549;SDS011;13444;50.562;7.262;2024-01-15T00:27:58;11.80;;;5.70;;
25549;SDS011;13444;50.562;7.262;2024-01-15T00:30:24;11.03;;;5.97;;
25549;SDS011;13444;50.562;7.262;2024-01-15T00:32:49;15.23;;;6.47;;
25549;SDS011;13444;50.562;7.262;2024-01-15T00:35:15;10.97;;;6.27;;
25549;SDS011;13444;50.562;7.262;2024-01-15T00:37:40;11.57;;;6.77;;
25549;SDS011;13444;50.562;7.262;2024-01-15T00:40:06;15.40;;;6.53;;
25549;SDS011;13444;50.562;7.262;2024-01-15T00:42:33;11.07;;;6.30;;
25549;SDS011;13444;50.562;7.262;2024-01-15T00:44:59;12.60;;;6.27;;
25549;SDS011;13444;50.562;7.262;2024-01-15T00:47:24;14.57;;;6.97;;
25549;SDS011;13444;50.562;7.262;2024-01-15T00:49:50;11.30;;;6.07;;
25549;SDS011;13444;50.562;7.262;2024-01-15T00:52:15;9.97;;;6.03;;
25549;SDS011;13444;50.562;7.262;2024-01-15T00:54:41;11.37;;;6.30;;
25549;SDS011;13444;50.562;7.262;2024-01-15T00:57:06;14.37;;;6.80;;
25549;SDS011;13444;50.562;7.262;2024-01-15T00:59:32;15.20;;;6.67;;
25549;SDS011;13444;50.562;7.262;2024-01-15T01:01:57;16.43;;;7.70;;
25549;SDS011;13444;50.562;7.262;2024-01-15T01:04:23;13.27;;;7.07;;
25549;SDS011;13444;50.562;7.262;2024-01-15T01:06:48;12.87;;;6.70;;
25549;SDS011;13444;50.562;7.262;2024-01-15T01:09:14;13.53;;;6.60;;
25549;SDS011;13444;50.562;7.262;2024-01-15T01:11:39;12.77;;;6.77;;
25549;SDS011;13444;50.562;7.262;2024-01-15T01:14:05;11.83;;;6.93;;
25549;SDS011;13444;50.562;7.262;2024-01-15T01:16:31;17.93;;;7.90;;
25549;SDS011;13444;50.562;7.262;2024-01-15T01:19:03;20.07;;;8.13;;
25549;SDS011;13444;50.562;7.262;2024-01-15T01:21:30;17.90;;;7.47;;
25549;SDS011;13444;50.562;7.262;2024-01-15T01:23:55;15.60;;;7.73;;
25549;SDS011;13444;50.562;7.262;2024-01-15T01:26:21;17.17;;;8.13;;
25549;SDS011;13444;50.562;7.262;2024-01-15T01:28:46;13.47;;;6.97;;
25549;SDS011;13444;50.562;7.262;2024-01-15T01:31:12;14.43;;;7.13;;
25549;SDS011;13444;50.562;7.262;2024-01-15T01:33:38;15.53;;;7.80;;
25549;SDS011;13444;50.562;7.262;2024-01-15T01:36:08;10.13;;;6.73;;
25549;SDS011;13444;50.562;7.262;2024-01-15T01:38:34;14.10;;;6.80;;
25549;SDS011;13444;50.562;7.262;2024-01-15T01:41:00;16.47;;;7.90;;
25549;SDS011;13444;50.562;7.262;2024-01-15T01:43:26;18.13;;;8.07;;
25549;SDS011;13444;50.562;7.262;2024-01-15T01:45:52;14.40;;;7.27;;
25549;SDS011;13444;50.562;7.262;2024-01-15T01:48:20;15.20;;;8.37;;
25549;SDS011;13444;50.562;7.262;2024-01-15T01:50:45;14.07;;;7.30;;
25549;SDS011;13444;50.562;7.262;2024-01-15T01:53:11;16.97;;;8.47;;
25549;SDS011;13444;50.562;7.262;2024-01-15T01:55:36;15.53;;;7.90;;
25549;SDS011;13444;50.562;7.262;2024-01-15T01:58:04;14.90;;;6.90;;
25549;SDS011;13444;50.562;7.262;2024-01-15T02:00:30;15.57;;;8.07;;
25549;SDS011;13444;50.562;7.262;2024-01-15T02:02:56;17.80;;;7.73;;
25549;SDS011;13444;50.562;7.262;2024-01-15T02:05:22;16.40;;;8.53;;
25549;SDS011;13444;50.562;7.262;2024-01-15T02:07:48;16.17;;;8.70;;
25549;SDS011;13444;50.562;7.262;2024-01-15T02:10:14;20.90;;;8.50;;
25549;SDS011;13444;50.562;7.262;2024-01-15T02:12:39;18.00;;;7.70;;
25549;SDS011;13444;50.562;7.262;2024-01-15T02:15:05;16.20;;;7.93;;
25549;SDS011;13444;50.562;7.262;2024-01-15T02:17:31;15.60;;;7.83;;
25549;SDS011;13444;50.562;7.262;2024-01-15T02:19:56;16.70;;;8.03;;
25549;SDS011;13444;50.562;7.262;2024-01-15T02:22:22;17.00;;;8.60;;
25549;SDS011;13444;50.562;7.262;2024-01-15T02:24:47;15.57;;;8.27;;
25549;SDS011;13444;50.562;7.262;2024-01-15T02:27:13;18.40;;;8.83;;
25549;SDS011;13444;50.562;7.262;2024-01-15T02:29:39;17.03;;;9.00;;
25549;SDS011;13444;50.562;7.262;2024-01-15T02:32:05;16.70;;;7.73;;
25549;SDS011;13444;50.562;7.262;2024-01-15T02:34:32;17.60;;;8.73;;
25549;SDS011;13444;50.562;7.262;2024-01-15T02:36:58;14.57;;;7.53;;
25549;SDS011;13444;50.562;7.262;2024-01-15T02:39:23;15.73;;;7.90;;
25549;SDS011;13444;50.562;7.262;2024-01-15T02:41:49;18.47;;;8.67;;
25549;SDS011;13444;50.562;7.262;2024-01-15T02:44:14;20.17;;;8.17;;
25549;SDS011;13444;50.562;7.262;2024-01-15T02:46:40;17.23;;;7.50;;
25549;SDS011;13444;50.562;7.262;2024-01-15T02:49:06;14.17;;;7.60;;
25549;SDS011;13444;50.562;7.262;2024-01-15T02:51:32;17.70;;;8.77;;
25549;SDS011;13444;50.562;7.262;2024-01-15T02:53:57;20.33;;;9.03;;
25549;SDS011;13444;50.562;7.262;2024-01-15T02:56:23;17.40;;;8.00;;
25549;SDS011;13444;50.562;7.262;2024-01-15T02:58:48;16.70;;;8.33;;
25549;SDS011;13444;50.562;7.262;2024-01-15T03:01:14;19.13;;;8.60;;
25549;SDS011;13444;50.562;7.262;2024-01-15T03:03:40;18.13;;;8.90;;
25549;SDS011;13444;50.562;7.262;2024-01-15T03:06:05;19.27;;;8.83;;
25549;SDS011;13444;50.562;7.262;2024-01-15T03:08:31;21.23;;;8.07;;
25549;SDS011;13444;50.562;7.262;2024-01-15T03:10:56;20.90;;;9.20;;
25549;SDS011;13444;50.562;7.262;2024-01-15T03:13:22;16.67;;;8.80;;
25549;SDS011;13444;50.562;7.262;2024-01-15T03:15:47;20.67;;;9.07;;
25549;SDS011;13444;50.562;7.262;2024-01-15T03:18:13;17.67;;;9.30;;
25549;SDS011;13444;50.562;7.262;2024-01-15T03:20:38;21.47;;;9.23;;
25549;SDS011;13444;50.562;7.262;2024-01-15T03:23:04;18.13;;;9.40;;
25549;SDS011;13444;50.562;7.262;2024-01-15T03:25:29;18.67;;;8.60;;
25549;SDS011;13444;50.562;7.262;2024-01-15T03:27:55;21.07;;;10.53;;
25549;SDS011;13444;50.562;7.262;2024-01-15T03:30:20;22.43;;;9.00;;
25549;SDS011;13444;50.562;7.262;2024-01-15T03:32:46;18.30;;;8.93;;
25549;SDS011;13444;50.562;7.262;2024-01-15T03:35:12;18.53;;;9.37;;
25549;SDS011;13444;50.562;7.262;2024-01-15T03:37:38;20.10;;;10.03;;
25549;SDS011;13444;50.562;7.262;2024-01-15T03:40:03;17.20;;;9.60;;
25549;SDS011;13444;50.562;7.262;2024-01-15T03:42:29;18.57;;;9.03;;
25549;SDS011;13444;50.562;7.262;2024-01-15T03:44:55;18.00;;;9.07;;
25549;SDS011;13444;50.562;7.262;2024-01-15T03:47:20;19.33;;;8.67;;
25549;SDS011;13444;50.562;7.262;2024-01-15T03:49:46;17.83;;;8.27;;
25549;SDS011;13444;50.562;7.262;2024-01-15T03:52:11;17.60;;;8.70;;
25549;SDS011;13444;50.562;7.262;2024-01-15T03:54:37;17.20;;;9.17;;
25549;SDS011;13444;50.562;7.262;2024-01-15T03:57:02;19.10;;;9.27;;
25549;SDS011;13444;50.562;7.262;2024-01-15T03:59:28;22.50;;;9.33;;
25549;SDS011;13444;50.562;7.262;2024-01-15T04:01:54;19.63;;;9.20;;
25549;SDS011;13444;50.562;7.262;2024-01-15T04:04:19;16.53;;;8.53;;
25549;SDS011;13444;50.562;7.262;2024-01-15T04:06:45;16.73;;;8.07;;
25549;SDS011;13444;50.562;7.262;2024-01-15T04:09:11;19.57;;;9.20;;
25549;SDS011;13444;50.562;7.262;2024-01-15T04:11:38;18.10;;;9.23;;
25549;SDS011;13444;50.562;7.262;2024-01-15T04:14:04;16.37;;;8.30;;
25549;SDS011;13444;50.562;7.262;2024-01-15T04:16:29;14.47;;;7.77;;
25549;SDS011;13444;50.562;7.262;2024-01-15T04:18:54;16.30;;;7.80;;
25549;SDS011;13444;50.562;7.262;2024-01-15T04:21:20;16.37;;;7.83;;
25549;SDS011;13444;50.562;7.262;2024-01-15T04:23:46;14.80;;;7.63;;
25549;SDS011;13444;50.562;7.262;2024-01-15T04:26:11;14.40;;;6.90;;
25549;SDS011;13444;50.562;7.262;2024-01-15T04:28:37;17.70;;;7.97;;
25549;SDS011;13444;50.562;7.262;2024-01-15T04:31:02;14.60;;;7.80;;
25549;SDS011;13444;50.562;7.262;2024-01-15T04:33:28;15.70;;;8.07;;
25549;SDS011;13444;50.562;7.262;2024-01-15T04:35:53;13.20;;;7.63;;
25549;SDS011;13444;50.562;7.262;2024-01-15T04:38:19;13.73;;;7.60;;
25549;SDS011;13444;50.562;7.262;2024-01-15T04:40:44;16.93;;;8.13;;
25549;SDS011;13444;50.562;7.262;2024-01-15T04:43:10;15.60;;;7.80;;
25549;SDS011;13444;50.562;7.262;2024-01-15T04:45:35;14.70;;;7.43;;
25549;SDS011;13444;50.562;7.262;2024-01-15T04:48:01;12.87;;;7.50;;
25549;SDS011;13444;50.562;7.262;2024-01-15T04:50:28;13.47;;;7.50;;
25549;SDS011;13444;50.562;7.262;2024-01-15T04:52:53;16.20;;;7.60;;
25549;SDS011;13444;50.562;7.262;2024-01-15T04:55:19;13.13;;;7.03;;
25549;SDS011;13444;50.562;7.262;2024-01-15T04:57:44;14.90;;;7.40;;
25549;SDS011;13444;50.562;7.262;2024-01-15T05:00:11;12.90;;;7.43;;
25549;SDS011;13444;50.562;7.262;2024-01-15T05:02:38;13.57;;;6.63;;
25549;SDS011;13444;50.562;7.262;2024-01-15T05:05:03;13.80;;;7.10;;
25549;SDS011;13444;50.562;7.262;2024-01-15T05:07:29;13.63;;;7.60;;
25549;SDS011;13444;50.562;7.262;2024-01-15T05:09:54;13.47;;;6.77;;
25549;SDS011;13444;50.562;7.262;2024-01-15T05:12:20;13.40;;;7.40;;
25549;SDS011;13444;50.562;7.262;2024-01-15T05:14:45;13.80;;;7.73;;
25549;SDS011;13444;50.562;7.262;2024-01-15T05:17:11;15.47;;;7.40;;
25549;SDS011;13444;50.562;7.262;2024-01-15T05:19:36;13.00;;;6.63;;
25549;SDS011;13444;50.562;7.262;2024-01-15T05:22:02;17.27;;;7.80;;
25549;SDS011;13444;50.562;7.262;2024-01-15T05:24:27;12.83;;;6.50;;
25549;SDS011;13444;50.562;7.262;2024-01-15T05:26:53;13.73;;;6.83;;
25549;SDS011;13444;50.562;7.262;2024-01-15T05:29:18;12.83;;;6.80;;
25549;SDS011;13444;50.562;7.262;2024-01-15T05:31:44;16.07;;;7.60;;
25549;SDS011;13444;50.562;7.262;2024-01-15T05:34:10;12.30;;;7.37;;
25549;SDS011;13444;50.562;7.262;2024-01-15T05:36:35;13.23;;;7.57;;
25549;SDS011;13444;50.562;7.262;2024-01-15T05:39:01;13.10;;;7.20;;
25549;SDS011;13444;50.562;7.262;2024-01-15T05:41:27;12.83;;;6.90;;
25549;SDS011;13444;50.562;7.262;2024-01-15T05:43:52;13.30;;;7.23;;
25549;SDS011;13444;50.562;7.262;2024-01-15T05:46:18;14.97;;;7.93;;
25549;SDS011;13444;50.562;7.262;2024-01-15T05:48:43;13.20;;;6.77;;
25549;SDS011;13444;50.562;7.262;2024-01-15T05:51:09;13.00;;;6.77;;
25549;SDS011;13444;50.562;7.262;2024-01-15T05:53:35;11.73;;;6.40;;
25549;SDS011;13444;50.562;7.262;2024-01-15T05:56:00;12.23;;;6.93;;
25549;SDS011;13444;50.562;7.262;2024-01-15T05:58:26;15.47;;;7.40;;
25549;SDS011;13444;50.562;7.262;2024-01-15T06:00:51;14.53;;;7.77;;
25549;SDS011;13444;50.562;7.262;2024-01-15T06:03:17;15.60;;;8.13;;
25549;SDS011;13444;50.562;7.262;2024-01-15T06:05:42;17.73;;;7.97;;
25549;SDS011;13444;50.562;7.262;2024-01-15T06:08:08;16.57;;;8.80;;
25549;SDS011;13444;50.562;7.262;2024-01-15T06:10:34;17.03;;;8.57;;
25549;SDS011;13444;50.562;7.262;2024-01-15T06:12:59;18.37;;;9.10;;
25549;SDS011;13444;50.562;7.262;2024-01-15T06:15:25;21.43;;;9.40;;
25549;SDS011;13444;50.562;7.262;2024-01-15T06:17:50;17.47;;;8.93;;
25549;SDS011;13444;50.562;7.262;2024-01-15T06:20:16;23.73;;;9.63;;
25549;SDS011;13444;50.562;7.262;2024-01-15T06:22:41;18.13;;;8.87;;
25549;SDS011;13444;50.562;7.262;2024-01-15T06:25:07;19.57;;;8.83;;
25549;SDS011;13444;50.562;7.262;2024-01-15T06:27:33;17.50;;;9.03;;
25549;SDS011;13444;50.562;7.262;2024-01-15T06:29:59;17.87;;;9.17;;
25549;SDS011;13444;50.562;7.262;2024-01-15T06:32:24;21.87;;;9.37;;
25549;SDS011;13444;50.562;7.262;2024-01-15T06:34:50;22.53;;;10.00;;
25549;SDS011;13444;50.562;7.262;2024-01-15T06:37:15;17.77;;;8.73;;
25549;SDS011;13444;50.562;7.262;2024-01-15T06:39:41;15.97;;;8.20;;
25549;SDS011;13444;50.562;7.262;2024-01-15T06:42:07;18.87;;;8.90;;
25549;SDS011;13444;50.562;7.262;2024-01-15T06:44:32;16.57;;;9.00;;
25549;SDS011;13444;50.562;7.262;2024-01-15T06:46:58;20.37;;;9.03;;
25549;SDS011;13444;50.562;7.262;2024-01-15T06:49:27;21.53;;;8.70;;
25549;SDS011;13444;50.562;7.262;2024-01-15T06:51:54;16.90;;;8.13;;
25549;SDS011;13444;50.562;7.262;2024-01-15T06:54:20;18.80;;;9.13;;
25549;SDS011;13444;50.562;7.262;2024-01-15T06:56:45;15.43;;;8.40;;
25549;SDS011;13444;50.562;7.262;2024-01-15T06:59:11;17.30;;;8.63;;
25549;SDS011;13444;50.562;7.262;2024-01-15T07:01:36;19.40;;;9.53;;
25549;SDS011;13444;50.562;7.262;2024-01-15T07:04:02;20.53;;;8.97;;
25549;SDS011;13444;50.562;7.262;2024-01-15T07:06:28;19.57;;;10.20;;
25549;SDS011;13444;50.562;7.262;2024-01-15T07:08:55;16.13;;;8.63;;
25549;SDS011;13444;50.562;7.262;2024-01-15T07:11:21;15.53;;;7.87;;
25549;SDS011;13444;50.562;7.262;2024-01-15T07:13:47;17.13;;;8.77;;
25549;SDS011;13444;50.562;7.262;2024-01-15T07:16:12;15.77;;;8.50;;
25549;SDS011;13444;50.562;7.262;2024-01-15T07:18:38;17.33;;;8.73;;
25549;SDS011;13444;50.562;7.262;2024-01-15T07:21:03;22.63;;;9.77;;
25549;SDS011;13444;50.562;7.262;2024-01-15T07:23:30;16.50;;;9.00;;
25549;SDS011;13444;50.562;7.262;2024-01-15T07:25:56;15.53;;;9.10;;
25549;SDS011;13444;50.562;7.262;2024-01-15T07:28:22;16.70;;;8.93;;
25549;SDS011;13444;50.562;7.262;2024-01-15T07:30:47;18.03;;;9.37;;
25549;SDS011;13444;50.562;7.262;2024-01-15T07:33:13;17.93;;;9.20;;
25549;SDS011;13444;50.562;7.262;2024-01-15T07:35:38;239.43;;;46.40;;
25549;SDS011;13444;50.562;7.262;2024-01-15T07:38:04;36.00;;;15.23;;
25549;SDS011;13444;50.562;7.262;2024-01-15T07:40:30;29.07;;;12.80;;
25549;SDS011;13444;50.562;7.262;2024-01-15T07:42:55;22.07;;;11.77;;
25549;SDS011;13444;50.562;7.262;2024-01-15T07:45:21;22.30;;;10.80;;
25549;SDS011;13444;50.562;7.262;2024-01-15T07:47:46;20.80;;;11.30;;
25549;SDS011;13444;50.562;7.262;2024-01-15T07:50:11;18.80;;;9.63;;
25549;SDS011;13444;50.562;7.262;2024-01-15T07:52:39;22.07;;;10.47;;
25549;SDS011;13444;50.562;7.262;2024-01-15T07:55:06;19.67;;;11.37;;
25549;SDS011;13444;50.562;7.262;2024-01-15T07:57:32;20.23;;;10.97;;
25549;SDS011;13444;50.562;7.262;2024-01-15T07:59:58;20.67;;;11.33;;
25549;SDS011;13444;50.562;7.262;2024-01-15T08:02:23;22.00;;;12.00;;
25549;SDS011;13444;50.562;7.262;2024-01-15T08:04:49;23.27;;;12.10;;
25549;SDS011;13444;50.562;7.262;2024-01-15T08:07:15;26.47;;;11.77;;
25549;SDS011;13444;50.562;7.262;2024-01-15T08:09:40;21.43;;;11.77;;
25549;SDS011;13444;50.562;7.262;2024-01-15T08:12:06;19.60;;;10.47;;
25549;SDS011;13444;50.562;7.262;2024-01-15T08:14:32;21.27;;;11.93;;
25549;SDS011;13444;50.562;7.262;2024-01-15T08:16:58;23.10;;;11.73;;
25549;SDS011;13444;50.562;7.262;2024-01-15T08:19:23;18.43;;;9.17;;
25549;SDS011;13444;50.562;7.262;2024-01-15T08:21:49;17.97;;;9.60;;
25549;SDS011;13444;50.562;7.262;2024-01-15T08:24:14;19.17;;;10.37;;
25549;SDS011;13444;50.562;7.262;2024-01-15T08:26:40;18.83;;;8.90;;
25549;SDS011;13444;50.562;7.262;2024-01-15T08:29:06;19.73;;;10.13;;
25549;SDS011;13444;50.562;7.262;2024-01-15T08:31:31;17.77;;;10.63;;
25549;SDS011;13444;50.562;7.262;2024-01-15T08:33:57;18.50;;;10.80;;
25549;SDS011;13444;50.562;7.262;2024-01-15T08:36:22;19.87;;;10.73;;
25549;SDS011;13444;50.562;7.262;2024-01-15T08:38:49;22.07;;;12.03;;
25549;SDS011;13444;50.562;7.262;2024-01-15T08:41:15;23.33;;;12.73;;
25549;SDS011;13444;50.562;7.262;2024-01-15T08:43:40;21.87;;;12.37;;
25549;SDS011;13444;50.562;7.262;2024-01-15T08:46:06;26.00;;;14.17;;
25549;SDS011;13444;50.562;7.262;2024-01-15T08:48:32;23.00;;;11.80;;
25549;SDS011;13444;50.562;7.262;2024-01-15T08:50:57;19.67;;;11.33;;
25549;SDS011;13444;50.562;7.262;2024-01-15T08:53:23;24.37;;;11.20;;
25549;SDS011;13444;50.562;7.262;2024-01-15T08:55:49;19.53;;;10.50;;
25549;SDS011;13444;50.562;7.262;2024-01-15T08:58:14;18.20;;;10.30;;
25549;SDS011;13444;50.562;7.262;2024-01-15T09:00:40;19.17;;;10.40;;
25549;SDS011;13444;50.562;7.262;2024-01-15T09:03:06;17.87;;;9.17;;
25549;SDS011;13444;50.562;7.262;2024-01-15T09:05:33;18.17;;;9.00;;
25549;SDS011;13444;50.562;7.262;2024-01-15T09:07:59;25.00;;;11.80;;
25549;SDS011;13444;50.562;7.262;2024-01-15T09:10:24;19.87;;;10.27;;
25549;SDS011;13444;50.562;7.262;2024-01-15T09:12:50;18.70;;;9.60;;
25549;SDS011;13444;50.562;7.262;2024-01-15T09:15:15;14.93;;;8.50;;
25549;SDS011;13444;50.562;7.262;2024-01-15T09:17:41;15.67;;;8.90;;
25549;SDS011;13444;50.562;7.262;2024-01-15T09:20:08;22.57;;;8.63;;
25549;SDS011;13444;50.562;7.262;2024-01-15T09:22:34;11.57;;;7.30;;
25549;SDS011;13444;50.562;7.262;2024-01-15T09:25:00;12.50;;;7.87;;
25549;SDS011;13444;50.562;7.262;2024-01-15T09:27:26;14.40;;;7.33;;
25549;SDS011;13444;50.562;7.262;2024-01-15T09:29:52;15.00;;;6.90;;
25549;SDS011;13444;50.562;7.262;2024-01-15T09:32:18;13.97;;;7.20;;
25549;SDS011;13444;50.562;7.262;2024-01-15T09:34:43;14.03;;;7.07;;
25549;SDS011;13444;50.562;7.262;2024-01-15T09:37:11;11.17;;;6.63;;
25549;SDS011;13444;50.562;7.262;2024-01-15T09:39:37;12.23;;;6.97;;
25549;SDS011;13444;50.562;7.262;2024-01-15T09:42:03;11.63;;;6.03;;
25549;SDS011;13444;50.562;7.262;2024-01-15T09:44:29;12.63;;;7.33;;
25549;SDS011;13444;50.562;7.262;2024-01-15T09:46:55;13.13;;;7.50;;
25549;SDS011;13444;50.562;7.262;2024-01-15T09:49:22;11.60;;;7.07;;
25549;SDS011;13444;50.562;7.262;2024-01-15T09:51:48;13.93;;;6.63;;
25549;SDS011;13444;50.562;7.262;2024-01-15T09:54:14;12.03;;;6.90;;
25549;SDS011;13444;50.562;7.262;2024-01-15T09:56:42;11.17;;;6.17;;
25549;SDS011;13444;50.562;7.262;2024-01-15T09:59:13;12.57;;;5.57;;
25549;SDS011;13444;50.562;7.262;2024-01-15T10:01:40;10.33;;;5.27;;
25549;SDS011;13444;50.562;7.262;2024-01-15T10:04:06;10.13;;;5.37;;
25549;SDS011;13444;50.562;7.262;2024-01-15T10:06:32;10.13;;;4.90;;
25549;SDS011;13444;50.562;7.262;2024-01-15T10:08:58;15.80;;;5.70;;
25549;SDS011;13444;50.562;7.262;2024-01-15T10:11:24;9.93;;;5.33;;
25549;SDS011;13444;50.562;7.262;2024-01-15T10:13:50;8.47;;;5.33;;
25549;SDS011;13444;50.562;7.262;2024-01-15T10:16:18;10.63;;;6.00;;
25549;SDS011;13444;50.562;7.262;2024-01-15T10:18:44;9.10;;;5.50;;
25549;SDS011;13444;50.562;7.262;2024-01-15T10:21:09;8.03;;;4.87;;
25549;SDS011;13444;50.562;7.262;2024-01-15T10:23:35;9.67;;;5.20;;
25549;SDS011;13444;50.562;7.262;2024-01-15T10:26:01;8.83;;;5.07;;
25549;SDS011;13444;50.562;7.262;2024-01-15T10:28:27;11.57;;;6.30;;
25549;SDS011;13444;50.562;7.262;2024-01-15T10:30:55;9.70;;;4.93;;
25549;SDS011;13444;50.562;7.262;2024-01-15T10:33:22;8.07;;;4.57;;
25549;SDS011;13444;50.562;7.262;2024-01-15T10:35:50;10.47;;;5.27;;
25549;SDS011;13444;50.562;7.262;2024-01-15T10:38:18;9.70;;;5.43;;
25549;SDS011;13444;50.562;7.262;2024-01-15T10:40:47;9.73;;;5.10;;
25549;SDS011;13444;50.562;7.262;2024-01-15T10:43:15;7.93;;;4.63;;
25549;SDS011;13444;50.562;7.262;2024-01-15T10:45:42;7.60;;;5.03;;
25549;SDS011;13444;50.562;7.262;2024-01-15T10:48:12;10.97;;;4.53;;
25549;SDS011;13444;50.562;7.262;2024-01-15T10:50:37;9.07;;;5.03;;
25549;SDS011;13444;50.562;7.262;2024-01-15T10:53:04;9.33;;;4.37;;
25549;SDS011;13444;50.562;7.262;2024-01-15T10:55:30;7.33;;;4.50;;
25549;SDS011;13444;50.562;7.262;2024-01-15T10:57:57;9.47;;;5.00;;
25549;SDS011;13444;50.562;7.262;2024-01-15T11:00:22;8.97;;;4.73;;
25549;SDS011;13444;50.562;7.262;2024-01-15T11:02:50;13.13;;;5.20;;
25549;SDS011;13444;50.562;7.262;2024-01-15T11:05:16;9.97;;;4.97;;
25549;SDS011;13444;50.562;7.262;2024-01-15T11:07:47;10.00;;;5.17;;
25549;SDS011;13444;50.562;7.262;2024-01-15T11:10:37;8.43;;;4.20;;
25549;SDS011;13444;50.562;7.262;2024-01-15T11:13:08;8.97;;;4.00;;
25549;SDS011;13444;50.562;7.262;2024-01-15T11:15:54;11.10;;;4.80;;
25549;SDS011;13444;50.562;7.262;2024-01-15T11:18:25;8.33;;;4.23;;
25549;SDS011;13444;50.562;7.262;2024-01-15T11:23:48;7.83;;;5.30;;
25549;SDS011;13444;50.562;7.262;2024-01-15T11:28:58;9.17;;;5.03;;
25549;SDS011;13444;50.562;7.262;2024-01-15T11:34:06;11.33;;;4.57;;
25549;SDS011;13444;50.562;7.262;2024-01-15T11:42:01;10.47;;;5.37;;
25549;SDS011;13444;50.562;7.262;2024-01-15T11:44:30;9.17;;;5.00;;
25549;SDS011;13444;50.562;7.262;2024-01-15T11:47:02;7.47;;;5.37;;
25549;SDS011;13444;50.562;7.262;2024-01-15T11:49:46;6.93;;;5.00;;
25549;SDS011;13444;50.562;7.262;2024-01-15T11:52:36;8.17;;;5.10;;
25549;SDS011;13444;50.562;7.262;2024-01-15T11:57:42;5.73;;;4.47;;
25549;SDS011;13444;50.562;7.262;2024-01-15T12:00:12;7.27;;;4.90;;
25549;SDS011;13444;50.562;7.262;2024-01-15T12:02:42;8.13;;;4.77;;
25549;SDS011;13444;50.562;7.262;2024-01-15T12:05:12;7.80;;;4.77;;
25549;SDS011;13444;50.562;7.262;2024-01-15T12:07:42;7.50;;;5.30;;
25549;SDS011;13444;50.562;7.262;2024-01-15T12:10:12;6.13;;;4.60;;
25549;SDS011;13444;50.562;7.262;2024-01-15T12:15:31;7.53;;;4.43;;
25549;SDS011;13444;50.562;7.262;2024-01-15T12:17:59;9.47;;;4.83;;
25549;SDS011;13444;50.562;7.262;2024-01-15T12:20:27;9.50;;;5.47;;
25549;SDS011;13444;50.562;7.262;2024-01-15T12:22:54;8.77;;;5.00;;
25549;SDS011;13444;50.562;7.262;2024-01-15T12:25:23;7.60;;;4.73;;
25549;SDS011;13444;50.562;7.262;2024-01-15T12:27:49;8.37;;;4.67;;
25549;SDS011;13444;50.562;7.262;2024-01-15T12:30:16;8.23;;;4.90;;
25549;SDS011;13444;50.562;7.262;2024-01-15T12:32:41;8.37;;;5.17;;
25549;SDS011;13444;50.562;7.262;2024-01-15T12:35:07;9.83;;;4.93;;
25549;SDS011;13444;50.562;7.262;2024-01-15T12:37:38;8.40;;;4.53;;
25549;SDS011;13444;50.562;7.262;2024-01-15T12:40:05;8.83;;;3.67;;
25549;SDS011;13444;50.562;7.262;2024-01-15T12:42:35;8.33;;;4.50;;
25549;SDS011;13444;50.562;7.262;2024-01-15T12:45:01;8.37;;;4.20;;
25549;SDS011;13444;50.562;7.262;2024-01-15T12:47:29;9.33;;;4.37;;
25549;SDS011;13444;50.562;7.262;2024-01-15T12:49:55;11.60;;;4.07;;
25549;SDS011;13444;50.562;7.262;2024-01-15T12:52:22;8.93;;;3.50;;
25549;SDS011;13444;50.562;7.262;2024-01-15T12:54:48;9.00;;;4.03;;
25549;SDS011;13444;50.562;7.262;2024-01-15T12:57:15;7.07;;;4.10;;
25549;SDS011;13444;50.562;7.262;2024-01-15T12:59:41;7.90;;;4.23;;
25549;SDS011;13444;50.562;7.262;2024-01-15T13:02:07;7.23;;;3.90;;
25549;SDS011;13444;50.562;7.262;2024-01-15T13:04:33;8.53;;;4.00;;
25549;SDS011;13444;50.562;7.262;2024-01-15T13:06:58;13.90;;;3.83;;
25549;SDS011;13444;50.562;7.262;2024-01-15T13:09:24;8.17;;;3.90;;
25549;SDS011;13444;50.562;7.262;2024-01-15T13:11:49;8.67;;;3.97;;
25549;SDS011;13444;50.562;7.262;2024-01-15T13:14:15;11.47;;;3.80;;
25549;SDS011;13444;50.562;7.262;2024-01-15T13:16:41;11.57;;;3.97;;
25549;SDS011;13444;50.562;7.262;2024-01-15T13:19:09;11.90;;;4.33;;
25549;SDS011;13444;50.562;7.262;2024-01-15T13:21:41;13.73;;;4.53;;
25549;SDS011;13444;50.562;7.262;2024-01-15T13:24:07;8.03;;;3.30;;
25549;SDS011;13444;50.562;7.262;2024-01-15T13:26:33;13.50;;;3.40;;
25549;SDS011;13444;50.562;7.262;2024-01-15T13:28:59;11.00;;;3.27;;
25549;SDS011;13444;50.562;7.262;2024-01-15T13:31:26;13.53;;;3.13;;
25549;SDS011;13444;50.562;7.262;2024-01-15T13:33:52;14.13;;;3.50;;
25549;SDS011;13444;50.562;7.262;2024-01-15T13:36:18;6.30;;;3.17;;
25549;SDS011;13444;50.562;7.262;2024-01-15T13:38:43;9.80;;;3.30;;
25549;SDS011;13444;50.562;7.262;2024-01-15T13:41:09;6.77;;;3.00;;
25549;SDS011;13444;50.562;7.262;2024-01-15T13:43:34;8.57;;;2.90;;
25549;SDS011;13444;50.562;7.262;2024-01-15T13:46:00;7.63;;;3.03;;
25549;SDS011;13444;50.562;7.262;2024-01-15T13:48:29;6.57;;;2.50;;
25549;SDS011;13444;50.562;7.262;2024-01-15T13:50:55;6.63;;;2.40;;
25549;SDS011;13444;50.562;7.262;2024-01-15T13:53:20;7.97;;;2.87;;
25549;SDS011;13444;50.562;7.262;2024-01-15T13:55:46;6.57;;;2.80;;
25549;SDS011;13444;50.562;7.262;2024-01-15T13:58:12;11.37;;;2.77;;
25549;SDS011;13444;50.562;7.262;2024-01-15T14:00:38;9.03;;;2.53;;
25549;SDS011;13444;50.562;7.262;2024-01-15T14:03:04;10.03;;;2.90;;
25549;SDS011;13444;50.562;7.262;2024-01-15T14:05:30;8.67;;;2.30;;
25549;SDS011;13444;50.562;7.262;2024-01-15T14:07:55;5.07;;;2.70;;
25549;SDS011;13444;50.562;7.262;2024-01-15T14:10:21;9.60;;;2.37;;
25549;SDS011;13444;50.562;7.262;2024-01-15T14:12:46;6.63;;;2.43;;
25549;SDS011;13444;50.562;7.262;2024-01-15T14:15:12;5.37;;;3.00;;
25549;SDS011;13444;50.562;7.262;2024-01-15T14:17:37;8.73;;;2.70;;
25549;SDS011;13444;50.562;7.262;2024-01-15T14:20:03;6.80;;;2.80;;
25549;SDS011;13444;50.562;7.262;2024-01-15T14:22:30;4.30;;;2.50;;
25549;SDS011;13444;50.562;7.262;2024-01-15T14:24:56;5.67;;;2.43;;
25549;SDS011;13444;50.562;7.262;2024-01-15T14:27:21;5.33;;;2.53;;
25549;SDS011;13444;50.562;7.262;2024-01-15T14:29:47;7.77;;;2.80;;
25549;SDS011;13444;50.562;7.262;2024-01-15T14:32:12;8.17;;;2.93;;
25549;SDS011;13444;50.562;7.262;2024-01-15T14:34:38;7.83;;;4.10;;
25549;SDS011;13444;50.562;7.262;2024-01-15T14:37:03;11.27;;;4.10;;
25549;SDS011;13444;50.562;7.262;2024-01-15T14:39:29;8.63;;;3.53;;
25549;SDS011;13444;50.562;7.262;2024-01-15T14:41:57;6.23;;;2.70;;
25549;SDS011;13444;50.562;7.262;2024-01-15T14:44:22;8.20;;;3.40;;
25549;SDS011;13444;50.562;7.262;2024-01-15T14:46:48;8.33;;;3.33;;
25549;SDS011;13444;50.562;7.262;2024-01-15T14:49:13;7.97;;;2.30;;